sensor_id;sensor_type;location;lat;lon;timestamp;pressure;altitude;pressure_sealevel;temperature;humidity
73858;BME280;62195;55.030;73.278;2022-08-02T00:00:31;99936.59;;;13.33;87.61
73858;BME280;62195;55.030;73.278;2022-08-02T00:02:57;99949.56;;;13.36;87.85
73858;BME280;62195;55.030;73.278;2022-08-02T00:05:24;99947.72;;;13.38;87.59
73858;BME280;62195;55.030;73.278;2022-08-02T00:07:50;99946.84;;;13.38;87.54
73858;BME280;62195;55.030;73.278;2022-08-02T00:10:16;99949.41;;;13.40;87.54
73858;BME280;62195;55.030;73.278;2022-08-02T00:12:43;99951.81;;;13.43;87.51
73858;BME280;62195;55.030;73.278;2022-08-02T00:15:09;99958.63;;;13.47;87.36
73858;BME280;62195;55.030;73.278;2022-08-02T00:17:35;99957.50;;;13.51;87.21
73858;BME280;62195;55.030;73.278;2022-08-02T00:20:03;99961.44;;;13.58;87.20
73858;BME280;62195;55.030;73.278;2022-08-02T00:22:30;99964.81;;;13.60;87.08
73858;BME280;62195;55.030;73.278;2022-08-02T00:24:56;99953.34;;;13.61;86.61
73858;BME280;62195;55.030;73.278;2022-08-02T00:27:22;99937.53;;;13.61;86.45
73858;BME280;62195;55.030;73.278;2022-08-02T00:29:49;99949.06;;;13.73;86.25
73858;BME280;62195;55.030;73.278;2022-08-02T00:32:17;99950.88;;;13.73;86.24
73858;BME280;62195;55.030;73.278;2022-08-02T00:34:53;99963.66;;;13.79;85.63
73858;BME280;62195;55.030;73.278;2022-08-02T00:37:19;99965.13;;;13.83;85.73
73858;BME280;62195;55.030;73.278;2022-08-02T00:39:45;99950.34;;;13.81;85.53
73858;BME280;62195;55.030;73.278;2022-08-02T00:42:14;99971.31;;;13.97;84.90
73858;BME280;62195;55.030;73.278;2022-08-02T00:44:41;99965.72;;;14.01;84.93
73858;BME280;62195;55.030;73.278;2022-08-02T00:47:07;99964.50;;;14.07;84.43
73858;BME280;62195;55.030;73.278;2022-08-02T00:49:33;99966.81;;;14.12;84.46
73858;BME280;62195;55.030;73.278;2022-08-02T00:52:00;99968.00;;;14.21;83.86
73858;BME280;62195;55.030;73.278;2022-08-02T00:54:26;99965.91;;;14.26;83.54
73858;BME280;62195;55.030;73.278;2022-08-02T00:56:53;99970.03;;;14.30;83.39
73858;BME280;62195;55.030;73.278;2022-08-02T00:59:22;99970.59;;;14.35;83.02
73858;BME280;62195;55.030;73.278;2022-08-02T01:01:48;99962.78;;;14.47;82.92
73858;BME280;62195;55.030;73.278;2022-08-02T01:04:16;99960.25;;;14.58;81.73
73858;BME280;62195;55.030;73.278;2022-08-02T01:06:43;99961.09;;;14.71;81.09
73858;BME280;62195;55.030;73.278;2022-08-02T01:09:09;99966.78;;;15.43;79.41
73858;BME280;62195;55.030;73.278;2022-08-02T01:11:41;99957.81;;;16.19;77.48
73858;BME280;62195;55.030;73.278;2022-08-02T01:14:18;99948.06;;;16.78;74.76
73858;BME280;62195;55.030;73.278;2022-08-02T01:16:53;99961.34;;;17.35;72.30
73858;BME280;62195;55.030;73.278;2022-08-02T01:30:38;99944.31;;;21.73;59.60
73858;BME280;62195;55.030;73.278;2022-08-02T01:33:07;99942.13;;;20.55;61.24
73858;BME280;62195;55.030;73.278;2022-08-02T01:35:40;99959.19;;;19.54;63.88
73858;BME280;62195;55.030;73.278;2022-08-02T01:38:51;99952.41;;;18.67;65.88
73858;BME280;62195;55.030;73.278;2022-08-02T01:41:15;99961.91;;;18.06;68.22
73858;BME280;62195;55.030;73.278;2022-08-02T01:43:56;99963.59;;;17.63;69.06
73858;BME280;62195;55.030;73.278;2022-08-02T01:46:29;99969.06;;;17.27;69.64
73858;BME280;62195;55.030;73.278;2022-08-02T01:48:58;99976.69;;;17.09;70.94
73858;BME280;62195;55.030;73.278;2022-08-02T01:51:36;99968.06;;;16.82;71.77
73858;BME280;62195;55.030;73.278;2022-08-02T01:54:34;99977.44;;;16.64;72.52
73858;BME280;62195;55.030;73.278;2022-08-02T01:57:04;99979.44;;;16.49;72.83
73858;BME280;62195;55.030;73.278;2022-08-02T01:59:43;99990.97;;;16.36;72.77
73858;BME280;62195;55.030;73.278;2022-08-02T02:02:12;99989.59;;;16.19;74.34
73858;BME280;62195;55.030;73.278;2022-08-02T02:04:39;99985.19;;;16.07;74.52
73858;BME280;62195;55.030;73.278;2022-08-02T02:07:06;99981.09;;;16.02;74.85
73858;BME280;62195;55.030;73.278;2022-08-02T02:09:38;99971.81;;;15.97;75.28
73858;BME280;62195;55.030;73.278;2022-08-02T02:12:11;99985.09;;;16.08;74.94
73858;BME280;62195;55.030;73.278;2022-08-02T02:14:40;99997.88;;;16.14;74.69
73858;BME280;62195;55.030;73.278;2022-08-02T02:17:08;99992.34;;;16.17;74.84
73858;BME280;62195;55.030;73.278;2022-08-02T02:19:35;99994.38;;;16.14;74.61
73858;BME280;62195;55.030;73.278;2022-08-02T02:22:08;100005.94;;;16.13;74.61
73858;BME280;62195;55.030;73.278;2022-08-02T02:24:35;100004.75;;;16.17;75.35
73858;BME280;62195;55.030;73.278;2022-08-02T02:27:08;100005.00;;;16.25;75.00
73858;BME280;62195;55.030;73.278;2022-08-02T02:29:39;99993.13;;;16.31;74.94
73858;BME280;62195;55.030;73.278;2022-08-02T02:32:08;99996.13;;;16.38;75.26
73858;BME280;62195;55.030;73.278;2022-08-02T02:34:43;99995.91;;;16.41;74.51
73858;BME280;62195;55.030;73.278;2022-08-02T02:37:20;99998.00;;;16.49;74.42
73858;BME280;62195;55.030;73.278;2022-08-02T02:39:50;100002.94;;;16.53;74.07
73858;BME280;62195;55.030;73.278;2022-08-02T02:42:18;100007.78;;;16.60;73.81
73858;BME280;62195;55.030;73.278;2022-08-02T02:44:49;99999.84;;;16.71;74.05
73858;BME280;62195;55.030;73.278;2022-08-02T02:47:19;100002.66;;;16.81;73.90
73858;BME280;62195;55.030;73.278;2022-08-02T02:49:51;100005.06;;;16.84;73.35
73858;BME280;62195;55.030;73.278;2022-08-02T02:52:19;100000.84;;;16.81;73.08
73858;BME280;62195;55.030;73.278;2022-08-02T02:54:51;100012.31;;;16.93;73.37
73858;BME280;62195;55.030;73.278;2022-08-02T02:57:19;100013.31;;;17.04;72.79
73858;BME280;62195;55.030;73.278;2022-08-02T02:59:47;100017.19;;;17.11;72.56
73858;BME280;62195;55.030;73.278;2022-08-02T03:02:13;100021.88;;;17.19;72.95
73858;BME280;62195;55.030;73.278;2022-08-02T03:04:41;100013.69;;;17.22;71.49
73858;BME280;62195;55.030;73.278;2022-08-02T03:07:08;100019.94;;;17.32;70.82
73858;BME280;62195;55.030;73.278;2022-08-02T03:09:35;100026.22;;;17.43;70.54
73858;BME280;62195;55.030;73.278;2022-08-02T03:12:08;100026.00;;;17.57;70.90
73858;BME280;62195;55.030;73.278;2022-08-02T03:14:40;100029.81;;;17.76;70.95
73858;BME280;62195;55.030;73.278;2022-08-02T03:17:18;100029.53;;;17.79;70.32
73858;BME280;62195;55.030;73.278;2022-08-02T03:19:55;100029.75;;;17.99;68.82
73858;BME280;62195;55.030;73.278;2022-08-02T03:22:21;100031.56;;;18.10;68.08
73858;BME280;62195;55.030;73.278;2022-08-02T03:24:57;100029.59;;;18.23;67.70
73858;BME280;62195;55.030;73.278;2022-08-02T03:27:24;100033.03;;;18.35;66.84
73858;BME280;62195;55.030;73.278;2022-08-02T03:29:54;100028.66;;;18.45;67.33
73858;BME280;62195;55.030;73.278;2022-08-02T03:32:21;100029.31;;;18.59;67.49
73858;BME280;62195;55.030;73.278;2022-08-02T03:34:57;100031.75;;;18.72;67.25
73858;BME280;62195;55.030;73.278;2022-08-02T03:37:25;100018.22;;;18.75;66.35
73858;BME280;62195;55.030;73.278;2022-08-02T03:39:52;100033.78;;;18.80;65.20
73858;BME280;62195;55.030;73.278;2022-08-02T03:42:26;100032.81;;;18.81;65.77
73858;BME280;62195;55.030;73.278;2022-08-02T03:44:54;100032.09;;;18.79;65.16
73858;BME280;62195;55.030;73.278;2022-08-02T03:47:22;100034.22;;;18.85;65.76
73858;BME280;62195;55.030;73.278;2022-08-02T03:49:48;100038.56;;;18.86;66.02
73858;BME280;62195;55.030;73.278;2022-08-02T03:52:16;100039.56;;;18.85;65.76
73858;BME280;62195;55.030;73.278;2022-08-02T03:54:45;100041.50;;;18.83;65.88
73858;BME280;62195;55.030;73.278;2022-08-02T03:57:12;100038.44;;;18.88;66.62
73858;BME280;62195;55.030;73.278;2022-08-02T03:59:43;100036.28;;;19.03;65.25
73858;BME280;62195;55.030;73.278;2022-08-02T04:02:11;100010.75;;;18.90;65.51
73858;BME280;62195;55.030;73.278;2022-08-02T04:04:38;100033.41;;;19.06;65.54
73858;BME280;62195;55.030;73.278;2022-08-02T04:07:13;100044.22;;;19.14;65.92
73858;BME280;62195;55.030;73.278;2022-08-02T04:09:39;99984.69;;;18.84;65.97
73858;BME280;62195;55.030;73.278;2022-08-02T04:12:05;100045.00;;;19.26;64.91
73858;BME280;62195;55.030;73.278;2022-08-02T04:14:33;100042.66;;;19.33;64.55
73858;BME280;62195;55.030;73.278;2022-08-02T04:17:01;100048.13;;;19.41;65.10
73858;BME280;62195;55.030;73.278;2022-08-02T04:19:37;100051.38;;;19.45;63.47
73858;BME280;62195;55.030;73.278;2022-08-02T04:22:15;100043.25;;;19.46;63.63
73858;BME280;62195;55.030;73.278;2022-08-02T04:24:56;100040.03;;;19.52;64.06
73858;BME280;62195;55.030;73.278;2022-08-02T04:27:24;100047.22;;;19.62;63.59
73858;BME280;62195;55.030;73.278;2022-08-02T04:29:52;100041.94;;;19.72;63.40
73858;BME280;62195;55.030;73.278;2022-08-02T04:32:19;100047.41;;;19.80;60.71
73858;BME280;62195;55.030;73.278;2022-08-02T04:34:47;100054.03;;;19.86;61.66
73858;BME280;62195;55.030;73.278;2022-08-02T04:37:14;100040.84;;;19.94;61.31
73858;BME280;62195;55.030;73.278;2022-08-02T04:39:45;100045.38;;;20.03;60.70
73858;BME280;62195;55.030;73.278;2022-08-02T04:42:19;100044.56;;;20.13;61.74
73858;BME280;62195;55.030;73.278;2022-08-02T04:44:56;100050.75;;;20.23;60.37
73858;BME280;62195;55.030;73.278;2022-08-02T04:47:23;100051.56;;;20.34;59.70
73858;BME280;62195;55.030;73.278;2022-08-02T04:49:51;100041.06;;;20.32;58.36
73858;BME280;62195;55.030;73.278;2022-08-02T04:52:17;100055.50;;;20.39;58.76
73858;BME280;62195;55.030;73.278;2022-08-02T04:54:53;100048.63;;;20.37;58.48
73858;BME280;62195;55.030;73.278;2022-08-02T04:57:20;100053.13;;;20.36;58.10
73858;BME280;62195;55.030;73.278;2022-08-02T05:00:05;100053.41;;;20.43;58.77
73858;BME280;62195;55.030;73.278;2022-08-02T05:02:36;100040.34;;;20.40;57.19
73858;BME280;62195;55.030;73.278;2022-08-02T05:05:02;100051.84;;;20.50;58.01
73858;BME280;62195;55.030;73.278;2022-08-02T05:07:28;100057.59;;;20.55;57.24
73858;BME280;62195;55.030;73.278;2022-08-02T05:09:56;100049.03;;;20.62;56.40
73858;BME280;62195;55.030;73.278;2022-08-02T05:12:22;100053.53;;;20.71;55.96
73858;BME280;62195;55.030;73.278;2022-08-02T05:14:53;100047.63;;;20.77;56.24
73858;BME280;62195;55.030;73.278;2022-08-02T05:17:21;100057.16;;;20.80;55.69
73858;BME280;62195;55.030;73.278;2022-08-02T05:19:49;100055.81;;;20.86;55.03
73858;BME280;62195;55.030;73.278;2022-08-02T05:22:16;100050.47;;;20.86;53.29
73858;BME280;62195;55.030;73.278;2022-08-02T05:24:42;100046.81;;;20.87;51.38
73858;BME280;62195;55.030;73.278;2022-08-02T05:27:09;100040.63;;;20.86;52.19
73858;BME280;62195;55.030;73.278;2022-08-02T05:29:36;100049.88;;;20.92;52.46
73858;BME280;62195;55.030;73.278;2022-08-02T05:32:04;100041.47;;;20.87;51.39
73858;BME280;62195;55.030;73.278;2022-08-02T05:34:36;100049.03;;;20.91;52.24
73858;BME280;62195;55.030;73.278;2022-08-02T05:37:03;100051.56;;;20.93;52.16
73858;BME280;62195;55.030;73.278;2022-08-02T05:39:29;100044.25;;;20.95;52.39
73858;BME280;62195;55.030;73.278;2022-08-02T05:42:04;100037.38;;;21.02;51.98
73858;BME280;62195;55.030;73.278;2022-08-02T05:44:31;100049.97;;;21.10;52.41
73858;BME280;62195;55.030;73.278;2022-08-02T05:46:57;100044.47;;;21.11;52.13
73858;BME280;62195;55.030;73.278;2022-08-02T05:49:24;100049.22;;;21.18;51.30
73858;BME280;62195;55.030;73.278;2022-08-02T05:52:06;100044.22;;;21.15;49.69
73858;BME280;62195;55.030;73.278;2022-08-02T05:57:35;100047.88;;;21.14;51.05
73858;BME280;62195;55.030;73.278;2022-08-02T06:00:12;100054.28;;;21.21;51.85
73858;BME280;62195;55.030;73.278;2022-08-02T06:05:18;100041.91;;;21.30;50.80
73858;BME280;62195;55.030;73.278;2022-08-02T06:07:54;100042.03;;;21.28;49.66
73858;BME280;62195;55.030;73.278;2022-08-02T06:10:21;100038.38;;;21.29;50.94
73858;BME280;62195;55.030;73.278;2022-08-02T06:12:50;100047.50;;;21.36;50.50
73858;BME280;62195;55.030;73.278;2022-08-02T06:15:18;100040.19;;;21.38;50.61
73858;BME280;62195;55.030;73.278;2022-08-02T06:17:45;100045.50;;;21.38;50.31
73858;BME280;62195;55.030;73.278;2022-08-02T06:20:12;100044.91;;;21.45;50.38
73858;BME280;62195;55.030;73.278;2022-08-02T06:22:41;100028.91;;;21.45;50.71
73858;BME280;62195;55.030;73.278;2022-08-02T06:25:11;100037.00;;;21.53;51.65
73858;BME280;62195;55.030;73.278;2022-08-02T06:27:40;100028.03;;;21.54;50.82
73858;BME280;62195;55.030;73.278;2022-08-02T06:30:08;100038.38;;;21.57;49.85
73858;BME280;62195;55.030;73.278;2022-08-02T06:32:35;100034.03;;;21.56;50.07
73858;BME280;62195;55.030;73.278;2022-08-02T06:35:03;100037.25;;;21.60;49.96
73858;BME280;62195;55.030;73.278;2022-08-02T06:37:39;100030.09;;;21.60;49.91
73858;BME280;62195;55.030;73.278;2022-08-02T06:45:42;100034.59;;;21.60;49.68
73858;BME280;62195;55.030;73.278;2022-08-02T06:48:09;100035.44;;;21.60;49.51
73858;BME280;62195;55.030;73.278;2022-08-02T06:50:36;100032.91;;;21.59;49.97
73858;BME280;62195;55.030;73.278;2022-08-02T06:53:07;100027.13;;;21.63;49.95
73858;BME280;62195;55.030;73.278;2022-08-02T06:55:44;100044.28;;;21.71;50.28
73858;BME280;62195;55.030;73.278;2022-08-02T06:58:16;100033.97;;;21.76;50.13
73858;BME280;62195;55.030;73.278;2022-08-02T07:00:42;100042.22;;;21.83;50.93
73858;BME280;62195;55.030;73.278;2022-08-02T07:03:10;100034.31;;;21.91;50.54
73858;BME280;62195;55.030;73.278;2022-08-02T07:05:37;100028.66;;;21.94;50.90
73858;BME280;62195;55.030;73.278;2022-08-02T07:08:03;99979.03;;;21.63;51.19
73858;BME280;62195;55.030;73.278;2022-08-02T07:10:30;100040.88;;;21.97;50.54
73858;BME280;62195;55.030;73.278;2022-08-02T07:12:56;100033.78;;;21.87;50.76
73858;BME280;62195;55.030;73.278;2022-08-02T07:15:22;100027.81;;;21.94;51.19
73858;BME280;62195;55.030;73.278;2022-08-02T07:17:48;100031.84;;;21.98;50.51
73858;BME280;62195;55.030;73.278;2022-08-02T07:20:16;100035.91;;;22.02;50.16
73858;BME280;62195;55.030;73.278;2022-08-02T07:22:42;100031.84;;;21.98;50.35
73858;BME280;62195;55.030;73.278;2022-08-02T07:25:08;100025.75;;;21.87;49.42
73858;BME280;62195;55.030;73.278;2022-08-02T07:27:34;100044.16;;;21.90;49.07
73858;BME280;62195;55.030;73.278;2022-08-02T07:30:11;100057.59;;;21.99;49.00
73858;BME280;62195;55.030;73.278;2022-08-02T07:32:37;100050.94;;;22.03;48.69
73858;BME280;62195;55.030;73.278;2022-08-02T07:35:04;100048.00;;;22.06;49.20
73858;BME280;62195;55.030;73.278;2022-08-02T07:37:32;100041.66;;;22.07;48.48
73858;BME280;62195;55.030;73.278;2022-08-02T07:39:59;100041.78;;;22.05;47.69
73858;BME280;62195;55.030;73.278;2022-08-02T07:42:25;100045.00;;;22.09;47.32
73858;BME280;62195;55.030;73.278;2022-08-02T07:44:53;100040.34;;;22.11;47.73
73858;BME280;62195;55.030;73.278;2022-08-02T07:47:20;100036.41;;;22.15;48.41
73858;BME280;62195;55.030;73.278;2022-08-02T07:49:46;100041.56;;;22.17;47.74
73858;BME280;62195;55.030;73.278;2022-08-02T07:52:16;100037.53;;;22.13;48.96
73858;BME280;62195;55.030;73.278;2022-08-02T07:54:48;100038.97;;;22.07;49.35
73858;BME280;62195;55.030;73.278;2022-08-02T07:57:14;100039.97;;;22.06;49.50
73858;BME280;62195;55.030;73.278;2022-08-02T07:59:45;100037.28;;;22.06;48.47
73858;BME280;62195;55.030;73.278;2022-08-02T08:02:13;100042.31;;;22.09;48.55
73858;BME280;62195;55.030;73.278;2022-08-02T08:04:42;100043.31;;;22.08;47.72
73858;BME280;62195;55.030;73.278;2022-08-02T08:07:09;100044.56;;;22.14;47.43
73858;BME280;62195;55.030;73.278;2022-08-02T08:09:37;100038.59;;;22.20;47.47
73858;BME280;62195;55.030;73.278;2022-08-02T08:12:12;100046.69;;;22.28;47.65
73858;BME280;62195;55.030;73.278;2022-08-02T08:14:38;100055.94;;;22.34;46.90
73858;BME280;62195;55.030;73.278;2022-08-02T08:17:05;100043.25;;;22.36;47.02
73858;BME280;62195;55.030;73.278;2022-08-02T08:19:32;100056.00;;;22.42;47.16
73858;BME280;62195;55.030;73.278;2022-08-02T08:21:58;100037.59;;;22.39;46.98
73858;BME280;62195;55.030;73.278;2022-08-02T08:24:30;100058.84;;;22.41;47.12
73858;BME280;62195;55.030;73.278;2022-08-02T08:26:56;100045.09;;;22.36;47.20
73858;BME280;62195;55.030;73.278;2022-08-02T08:29:32;100055.56;;;22.47;47.52
73858;BME280;62195;55.030;73.278;2022-08-02T08:31:58;100063.41;;;22.49;47.98
73858;BME280;62195;55.030;73.278;2022-08-02T08:34:28;100049.22;;;22.48;47.79
73858;BME280;62195;55.030;73.278;2022-08-02T08:36:56;100058.75;;;22.51;48.14
73858;BME280;62195;55.030;73.278;2022-08-02T08:39:22;100058.06;;;22.49;46.99
73858;BME280;62195;55.030;73.278;2022-08-02T08:41:48;100051.34;;;22.44;46.91
73858;BME280;62195;55.030;73.278;2022-08-02T08:44:14;100045.16;;;22.44;47.05
73858;BME280;62195;55.030;73.278;2022-08-02T08:46:42;100049.34;;;22.47;48.18
73858;BME280;62195;55.030;73.278;2022-08-02T08:49:32;100041.72;;;22.52;47.93
73858;BME280;62195;55.030;73.278;2022-08-02T08:52:07;100041.66;;;22.62;48.01
73858;BME280;62195;55.030;73.278;2022-08-02T08:54:47;100034.31;;;22.64;47.18
73858;BME280;62195;55.030;73.278;2022-08-02T08:57:24;100040.72;;;22.71;46.79
73858;BME280;62195;55.030;73.278;2022-08-02T08:59:50;100033.06;;;22.76;47.39
73858;BME280;62195;55.030;73.278;2022-08-02T09:02:17;100023.91;;;22.79;47.18
73858;BME280;62195;55.030;73.278;2022-08-02T09:04:53;100037.63;;;22.84;47.37
73858;BME280;62195;55.030;73.278;2022-08-02T09:07:19;100042.50;;;22.89;46.13
73858;BME280;62195;55.030;73.278;2022-08-02T09:09:45;100029.63;;;22.84;45.15
73858;BME280;62195;55.030;73.278;2022-08-02T09:12:17;100040.69;;;22.89;45.25
73858;BME280;62195;55.030;73.278;2022-08-02T09:14:46;100046.03;;;22.89;45.45
73858;BME280;62195;55.030;73.278;2022-08-02T09:17:12;100043.38;;;22.89;46.17
73858;BME280;62195;55.030;73.278;2022-08-02T09:19:39;100039.75;;;22.80;45.23
73858;BME280;62195;55.030;73.278;2022-08-02T09:22:11;100049.31;;;22.83;46.32
73858;BME280;62195;55.030;73.278;2022-08-02T09:24:45;100047.44;;;22.75;45.29
73858;BME280;62195;55.030;73.278;2022-08-02T09:27:14;100049.66;;;22.80;47.21
73858;BME280;62195;55.030;73.278;2022-08-02T09:29:51;100046.19;;;22.88;46.86
73858;BME280;62195;55.030;73.278;2022-08-02T09:32:23;100050.91;;;22.94;47.77
73858;BME280;62195;55.030;73.278;2022-08-02T09:34:52;100043.09;;;23.01;45.05
73858;BME280;62195;55.030;73.278;2022-08-02T09:37:29;100045.06;;;22.98;43.86
73858;BME280;62195;55.030;73.278;2022-08-02T09:40:01;100043.25;;;22.99;45.50
73858;BME280;62195;55.030;73.278;2022-08-02T09:42:30;100039.56;;;23.00;46.54
73858;BME280;62195;55.030;73.278;2022-08-02T09:44:59;100034.75;;;23.04;46.83
73858;BME280;62195;55.030;73.278;2022-08-02T09:47:31;100045.31;;;23.14;47.13
73858;BME280;62195;55.030;73.278;2022-08-02T09:49:58;100045.19;;;23.15;46.28
73858;BME280;62195;55.030;73.278;2022-08-02T09:52:32;100036.47;;;23.13;46.52
73858;BME280;62195;55.030;73.278;2022-08-02T09:55:08;100034.81;;;23.12;46.21
73858;BME280;62195;55.030;73.278;2022-08-02T09:57:41;100040.31;;;23.10;45.85
73858;BME280;62195;55.030;73.278;2022-08-02T10:00:12;100041.13;;;23.11;46.70
73858;BME280;62195;55.030;73.278;2022-08-02T10:03:09;100041.47;;;23.08;47.07
73858;BME280;62195;55.030;73.278;2022-08-02T10:05:53;100051.81;;;23.03;45.89
73858;BME280;62195;55.030;73.278;2022-08-02T10:08:24;100036.22;;;22.98;46.72
73858;BME280;62195;55.030;73.278;2022-08-02T10:11:01;100042.91;;;23.02;47.78
73858;BME280;62195;55.030;73.278;2022-08-02T10:13:30;100035.78;;;23.11;47.20
73858;BME280;62195;55.030;73.278;2022-08-02T10:15:56;100038.81;;;23.16;46.86
73858;BME280;62195;55.030;73.278;2022-08-02T10:18:27;100035.69;;;23.21;46.69
73858;BME280;62195;55.030;73.278;2022-08-02T10:21:06;100040.41;;;23.27;46.95
73858;BME280;62195;55.030;73.278;2022-08-02T10:23:38;100040.03;;;23.22;44.94
73858;BME280;62195;55.030;73.278;2022-08-02T10:26:17;100049.38;;;23.18;44.99
73858;BME280;62195;55.030;73.278;2022-08-02T10:28:48;99999.19;;;22.85;45.31
73858;BME280;62195;55.030;73.278;2022-08-02T10:31:19;100047.53;;;23.18;45.89
73858;BME280;62195;55.030;73.278;2022-08-02T10:33:58;100038.66;;;23.18;44.94
73858;BME280;62195;55.030;73.278;2022-08-02T10:36:28;100033.16;;;23.19;44.99
73858;BME280;62195;55.030;73.278;2022-08-02T10:39:07;100043.88;;;23.19;45.13
73858;BME280;62195;55.030;73.278;2022-08-02T10:44:26;100051.00;;;23.10;44.73
73858;BME280;62195;55.030;73.278;2022-08-02T10:47:24;100049.44;;;23.00;44.56
73858;BME280;62195;55.030;73.278;2022-08-02T10:50:01;100048.75;;;22.97;45.13
73858;BME280;62195;55.030;73.278;2022-08-02T10:52:31;100062.81;;;23.00;44.28
73858;BME280;62195;55.030;73.278;2022-08-02T10:55:00;100049.44;;;23.00;44.33
73858;BME280;62195;55.030;73.278;2022-08-02T10:57:31;100041.34;;;22.91;44.71
73858;BME280;62195;55.030;73.278;2022-08-02T11:02:53;100054.59;;;22.93;44.46
73858;BME280;62195;55.030;73.278;2022-08-02T11:05:30;100043.50;;;22.88;44.98
73858;BME280;62195;55.030;73.278;2022-08-02T11:07:57;100055.41;;;22.93;45.31
73858;BME280;62195;55.030;73.278;2022-08-02T11:10:37;100048.38;;;22.92;45.31
73858;BME280;62195;55.030;73.278;2022-08-02T11:13:06;100046.38;;;22.94;45.63
73858;BME280;62195;55.030;73.278;2022-08-02T11:15:56;100054.88;;;22.90;46.35
73858;BME280;62195;55.030;73.278;2022-08-02T11:21:33;100055.75;;;22.90;47.01
73858;BME280;62195;55.030;73.278;2022-08-02T11:24:26;100047.56;;;22.92;46.37
73858;BME280;62195;55.030;73.278;2022-08-02T11:26:53;100062.44;;;22.94;46.24
73858;BME280;62195;55.030;73.278;2022-08-02T11:29:21;100066.63;;;22.97;46.64
73858;BME280;62195;55.030;73.278;2022-08-02T11:31:47;100054.22;;;22.88;46.92
73858;BME280;62195;55.030;73.278;2022-08-02T11:34:16;100059.09;;;22.92;47.12
73858;BME280;62195;55.030;73.278;2022-08-02T11:36:53;100034.22;;;22.74;47.24
73858;BME280;62195;55.030;73.278;2022-08-02T11:39:21;100066.44;;;22.90;47.29
73858;BME280;62195;55.030;73.278;2022-08-02T11:41:58;100068.41;;;22.88;46.42
73858;BME280;62195;55.030;73.278;2022-08-02T11:44:26;100055.28;;;22.77;46.63
73858;BME280;62195;55.030;73.278;2022-08-02T11:47:02;100065.03;;;22.78;46.83
73858;BME280;62195;55.030;73.278;2022-08-02T11:49:39;100066.63;;;22.70;46.60
73858;BME280;62195;55.030;73.278;2022-08-02T11:52:07;100071.31;;;22.68;47.04
73858;BME280;62195;55.030;73.278;2022-08-02T11:54:37;100075.28;;;22.64;46.72
73858;BME280;62195;55.030;73.278;2022-08-02T11:57:20;100080.94;;;22.61;45.82
73858;BME280;62195;55.030;73.278;2022-08-02T11:59:55;100076.03;;;22.56;45.48
73858;BME280;62195;55.030;73.278;2022-08-02T12:02:29;100079.84;;;22.54;46.48
73858;BME280;62195;55.030;73.278;2022-08-02T12:05:05;100084.38;;;22.53;46.33
73858;BME280;62195;55.030;73.278;2022-08-02T12:07:34;100085.66;;;22.49;46.23
73858;BME280;62195;55.030;73.278;2022-08-02T12:10:14;100091.00;;;22.49;46.03
73858;BME280;62195;55.030;73.278;2022-08-02T12:12:56;100085.78;;;22.48;46.03
73858;BME280;62195;55.030;73.278;2022-08-02T12:15:30;100086.78;;;22.47;46.49
73858;BME280;62195;55.030;73.278;2022-08-02T12:18:08;100088.09;;;22.42;46.26
73858;BME280;62195;55.030;73.278;2022-08-02T12:20:53;100086.34;;;22.33;46.20
73858;BME280;62195;55.030;73.278;2022-08-02T12:23:19;100086.63;;;22.30;45.86
73858;BME280;62195;55.030;73.278;2022-08-02T12:25:58;100086.09;;;22.26;45.43
73858;BME280;62195;55.030;73.278;2022-08-02T12:28:24;100101.63;;;22.23;45.68
73858;BME280;62195;55.030;73.278;2022-08-02T12:30:57;100095.19;;;22.15;46.21
73858;BME280;62195;55.030;73.278;2022-08-02T12:33:46;100092.13;;;22.10;46.33
73858;BME280;62195;55.030;73.278;2022-08-02T12:36:24;100100.44;;;22.07;46.75
73858;BME280;62195;55.030;73.278;2022-08-02T12:38:57;100089.91;;;22.05;47.33
73858;BME280;62195;55.030;73.278;2022-08-02T12:41:25;100094.56;;;22.03;47.73
73858;BME280;62195;55.030;73.278;2022-08-02T12:43:55;100110.72;;;22.02;47.74
73858;BME280;62195;55.030;73.278;2022-08-02T12:46:27;100104.00;;;21.98;47.89
73858;BME280;62195;55.030;73.278;2022-08-02T12:48:55;100107.66;;;21.97;48.27
73858;BME280;62195;55.030;73.278;2022-08-02T12:51:25;100102.31;;;21.97;47.49
73858;BME280;62195;55.030;73.278;2022-08-02T12:53:53;100104.47;;;21.93;47.06
73858;BME280;62195;55.030;73.278;2022-08-02T12:56:31;100106.59;;;21.89;46.98
73858;BME280;62195;55.030;73.278;2022-08-02T12:59:07;100103.81;;;21.81;47.21
73858;BME280;62195;55.030;73.278;2022-08-02T13:01:34;100115.88;;;21.85;47.52
73858;BME280;62195;55.030;73.278;2022-08-02T13:04:01;100117.75;;;21.85;47.62
73858;BME280;62195;55.030;73.278;2022-08-02T13:06:38;100117.88;;;21.83;47.87
73858;BME280;62195;55.030;73.278;2022-08-02T13:09:15;100110.84;;;21.82;47.76
73858;BME280;62195;55.030;73.278;2022-08-02T13:11:42;100095.97;;;21.70;47.61
73858;BME280;62195;55.030;73.278;2022-08-02T13:14:08;100105.13;;;21.77;47.87
73858;BME280;62195;55.030;73.278;2022-08-02T13:16:35;100112.81;;;21.80;47.74
73858;BME280;62195;55.030;73.278;2022-08-02T13:19:01;100111.13;;;21.79;48.11
73858;BME280;62195;55.030;73.278;2022-08-02T13:21:31;100113.94;;;21.77;47.49
73858;BME280;62195;55.030;73.278;2022-08-02T13:24:09;100113.28;;;21.75;47.86
73858;BME280;62195;55.030;73.278;2022-08-02T13:26:39;100125.09;;;21.73;48.51
73858;BME280;62195;55.030;73.278;2022-08-02T13:29:05;100119.19;;;21.69;49.09
73858;BME280;62195;55.030;73.278;2022-08-02T13:31:32;100120.44;;;21.65;48.92